Time;durP1;ratioP1;P1;durP2;ratioP2;P2;SDS_P1;SDS_P2;PMS_P1;PMS_P2;Temp;Humidity;BMP_temperature;BMP_pressure;BME280_temperature;BME280_humidity;BME280_pressure;Samples;Min_cycle;Max_cycle;Signal;HPM_P1;HPM_P2
2023/01/13 00:01:58;;;;;;;;;;;;;;;4.00;76.37;94967.59;4168443;28;19928;-71
2023/01/13 00:04:00;;;;;;;;;;;;;;;4.05;76.31;94970.72;4175907;28;19927;-72
2023/01/13 00:06:01;;;;;;;;;;;;;;;4.04;75.78;94975.06;4163614;28;20383;-69
2023/01/13 00:08:05;;;;;;;;;;;;;;;4.00;75.86;94972.78;4160689;28;19928;-73
2023/01/13 00:10:07;;;;;;;;;;;;;;;4.01;76.17;94983.06;4160594;28;20135;-72
2023/01/13 00:12:09;;;;;;;;;;;;;;;3.92;75.63;94977.72;4160757;28;19925;-71
2023/01/13 00:14:10;;;;;;;;;;;;;;;3.98;76.64;94978.09;4162511;28;19921;-71
2023/01/13 00:16:14;;;;;;;;;;;;;;;4.02;76.19;94976.09;4171850;28;20364;-71
2023/01/13 00:18:16;;;;;;;;;;;;;;;3.99;75.65;94976.34;4170698;28;19925;-72
2023/01/13 00:20:17;;;;;;;;;;;;;;;4.04;75.70;94980.25;4175305;28;19971;-71
2023/01/13 00:22:19;;;;;;;;;;;;;;;4.07;75.32;94981.78;4175647;28;19925;-73
2023/01/13 00:24:20;;;;;;;;;;;;;;;4.00;75.84;94977.97;4175019;28;19921;-72
2023/01/13 00:26:24;;;;;;;;;;;;;;;3.99;76.32;94982.34;4175861;28;19920;-74
2023/01/13 00:28:26;;;;;;;;;;;;;;;4.01;76.07;94983.06;4158588;28;19921;-71
2023/01/13 00:30:27;;;;;;;;;;;;;;;4.01;75.92;94977.06;4175078;28;19925;-72
2023/01/13 00:32:29;;;;;;;;;;;;;;;4.02;76.13;94976.94;4166478;28;19928;-73
2023/01/13 00:34:30;;;;;;;;;;;;;;;4.07;75.67;94974.84;4151419;28;19964;-72
2023/01/13 00:36:32;;;;;;;;;;;;;;;4.10;75.41;94974.59;4173811;28;19948;-73
2023/01/13 00:38:35;;;;;;;;;;;;;;;4.07;75.58;94977.44;4171594;28;20015;-72
2023/01/13 00:40:37;;;;;;;;;;;;;;;4.02;75.35;94976.09;4172817;28;20044;-73
2023/01/13 00:44:58;;;;;;;;;;;;;;;3.95;76.03;94970.53;4175886;28;19920;-72
2023/01/13 00:47:00;;;;;;;;;;;;;;;3.90;75.83;94972.66;4168844;28;19920;-72
2023/01/13 00:49:01;;;;;;;;;;;;;;;3.93;76.22;94969.81;4170272;28;19991;-73
2023/01/13 00:51:21;;;;;;;;;;;;;;;3.95;75.92;94967.94;4158590;28;19921;-71
2023/01/13 00:53:23;;;;;;;;;;;;;;;4.00;75.10;94970.19;4174394;28;20308;-73
2023/01/13 00:55:24;;;;;;;;;;;;;;;3.96;75.02;94967.03;4176144;28;19924;-74
2023/01/13 00:57:28;;;;;;;;;;;;;;;3.95;75.32;94965.34;4176231;28;20336;-71
2023/01/13 00:59:30;;;;;;;;;;;;;;;3.96;75.40;94963.59;4178673;28;20408;-73
2023/01/13 01:01:31;;;;;;;;;;;;;;;3.97;75.40;94962.66;4175948;28;19921;-71
2023/01/13 01:03:33;;;;;;;;;;;;;;;3.94;74.95;94958.53;4160658;28;20031;-72
2023/01/13 01:05:35;;;;;;;;;;;;;;;3.86;76.31;94963.44;4171492;28;20012;-71
2023/01/13 01:07:37;;;;;;;;;;;;;;;3.89;75.75;94965.78;4176166;28;19963;-70
2023/01/13 01:09:39;;;;;;;;;;;;;;;4.01;75.91;94962.31;4177977;28;20008;-74
2023/01/13 01:11:41;;;;;;;;;;;;;;;3.99;75.01;94971.97;4160222;28;19968;-74
2023/01/13 01:13:43;;;;;;;;;;;;;;;3.99;75.14;94959.00;4175856;28;19927;-74
2023/01/13 01:15:46;;;;;;;;;;;;;;;3.95;75.16;94955.00;4176300;28;19964;-72
2023/01/13 01:17:48;;;;;;;;;;;;;;;3.90;75.27;94957.09;4175213;28;20015;-73
2023/01/13 01:19:49;;;;;;;;;;;;;;;3.94;75.63;94955.94;4159093;28;19960;-72
2023/01/13 01:21:51;;;;;;;;;;;;;;;3.93;75.84;94956.88;4174308;28;20032;-71
2023/01/13 01:23:53;;;;;;;;;;;;;;;3.88;75.17;94953.78;4170144;28;19921;-73
2023/01/13 01:26:05;;;;;;;;;;;;;;;3.93;75.86;94953.44;4167217;28;20280;-71
2023/01/13 01:28:07;;;;;;;;;;;;;;;3.95;75.72;94951.56;4175149;28;19936;-72
2023/01/13 01:30:09;;;;;;;;;;;;;;;3.83;75.70;94950.69;4152165;28;19929;-73
2023/01/13 01:32:10;;;;;;;;;;;;;;;3.86;75.82;94947.88;4167430;28;20234;-72
2023/01/13 01:34:12;;;;;;;;;;;;;;;3.88;75.26;94948.59;4167936;28;20029;-73
2023/01/13 01:36:15;;;;;;;;;;;;;;;3.94;75.32;94945.56;4174420;28;19920;-72
2023/01/13 01:38:17;;;;;;;;;;;;;;;3.95;75.10;94936.84;4177451;28;19924;-71
2023/01/13 01:40:18;;;;;;;;;;;;;;;3.91;75.00;94938.00;4171533;28;20004;-72
2023/01/13 01:44:41;;;;;;;;;;;;;;;3.94;75.64;94935.19;4162891;28;19956;-72
2023/01/13 01:46:43;;;;;;;;;;;;;;;3.92;74.97;94939.66;4176418;28;20007;-72
2023/01/13 01:48:44;;;;;;;;;;;;;;;3.96;75.34;94930.72;4170367;28;19992;-72
2023/01/13 01:50:46;;;;;;;;;;;;;;;3.93;74.73;94930.94;4177580;28;19969;-71
2023/01/13 01:52:57;;;;;;;;;;;;;;;4.02;75.22;94932.03;4159403;28;19925;-72
2023/01/13 01:55:01;;;;;;;;;;;;;;;4.05;75.37;94932.63;4151420;28;20019;-71
2023/01/13 01:57:03;;;;;;;;;;;;;;;4.04;74.64;94937.94;4160389;28;19990;-71
2023/01/13 01:59:04;;;;;;;;;;;;;;;4.04;74.37;94933.59;4159786;28;20384;-71
2023/01/13 02:01:06;;;;;;;;;;;;;;;3.96;75.01;94935.91;4177506;28;20126;-72
2023/01/13 02:03:07;;;;;;;;;;;;;;;4.01;74.78;94932.97;4159539;28;19928;-73
2023/01/13 02:05:09;;;;;;;;;;;;;;;4.01;75.34;94931.22;4159188;28;20143;-75
2023/01/13 02:07:11;;;;;;;;;;;;;;;4.07;74.61;94937.72;4174774;28;20271;-72
2023/01/13 02:09:12;;;;;;;;;;;;;;;4.01;74.95;94933.81;4159130;28;20008;-73
2023/01/13 02:13:50;;;;;;;;;;;;;;;3.99;75.26;94934.84;4160297;28;20447;-70
2023/01/13 02:15:52;;;;;;;;;;;;;;;4.01;74.70;94933.81;4174564;28;19978;-72
2023/01/13 02:18:05;;;;;;;;;;;;;;;4.00;74.93;94934.75;4171857;28;20024;-73
2023/01/13 02:20:28;;;;;;;;;;;;;;;3.99;75.05;94943.47;4163373;28;19979;-73
2023/01/13 02:22:48;;;;;;;;;;;;;;;4.05;75.05;94931.81;4173186;28;19928;-74
2023/01/13 02:25:22;;;;;;;;;;;;;;;4.05;74.57;94926.63;4167486;28;20348;-72
2023/01/13 02:27:29;;;;;;;;;;;;;;;4.01;74.72;94926.03;4133128;28;19924;-73
2023/01/13 02:32:03;;;;;;;;;;;;;;;4.07;74.88;94928.16;4131952;28;20313;-73
2023/01/13 02:34:19;;;;;;;;;;;;;;;4.12;74.60;94932.19;4158201;28;19960;-73
2023/01/13 02:36:33;;;;;;;;;;;;;;;4.08;74.76;94931.56;4143020;28;20389;-73
2023/01/13 02:38:36;;;;;;;;;;;;;;;4.04;74.39;94931.00;4167359;28;20071;-73
2023/01/13 02:40:39;;;;;;;;;;;;;;;3.94;75.28;94940.38;4149200;28;19929;-71
2023/01/13 02:45:09;;;;;;;;;;;;;;;4.00;75.04;94929.56;4159296;28;19921;-72
2023/01/13 02:47:14;;;;;;;;;;;;;;;4.05;74.66;94924.88;4164245;28;19932;-71
2023/01/13 02:49:27;;;;;;;;;;;;;;;4.03;74.80;94934.50;4165701;28;20023;-72
2023/01/13 02:51:29;;;;;;;;;;;;;;;3.91;75.14;94930.22;4150863;28;20036;-72
2023/01/13 02:53:33;;;;;;;;;;;;;;;3.87;74.80;94929.66;4157407;28;19928;-72
2023/01/13 02:55:48;;;;;;;;;;;;;;;3.88;75.00;94931.28;4157681;28;20039;-74
2023/01/13 02:57:50;;;;;;;;;;;;;;;3.98;75.60;94925.41;4147182;28;19937;-72
2023/01/13 02:59:53;;;;;;;;;;;;;;;3.95;74.83;94923.88;4176576;28;20255;-72
2023/01/13 03:01:55;;;;;;;;;;;;;;;3.90;75.58;94924.22;4148258;28;19921;-72
2023/01/13 03:03:57;;;;;;;;;;;;;;;3.98;75.56;94930.59;4173260;28;19983;-72
2023/01/13 03:06:03;;;;;;;;;;;;;;;3.99;74.75;94930.50;4162937;28;19921;-72
2023/01/13 03:08:20;;;;;;;;;;;;;;;3.63;75.69;94924.47;4136193;28;19992;-71
2023/01/13 03:10:25;;;;;;;;;;;;;;;3.64;76.00;94927.91;4173234;28;19924;-75
2023/01/13 03:12:33;;;;;;;;;;;;;;;3.77;76.48;94926.06;4160781;28;19921;-72
2023/01/13 03:14:34;;;;;;;;;;;;;;;3.87;75.91;94933.97;4153339;28;19952;-72
2023/01/13 03:16:37;;;;;;;;;;;;;;;3.85;75.71;94928.94;4164701;28;19928;-71
2023/01/13 03:18:41;;;;;;;;;;;;;;;3.84;75.08;94932.44;4172020;28;20022;-71
2023/01/13 03:20:47;;;;;;;;;;;;;;;3.87;75.24;94928.78;4150272;28;20012;-73
2023/01/13 03:23:09;;;;;;;;;;;;;;;3.86;75.66;94935.75;4159449;28;19928;-71
2023/01/13 03:25:11;;;;;;;;;;;;;;;3.98;75.99;94923.66;4165033;28;19959;-71
2023/01/13 03:27:21;;;;;;;;;;;;;;;4.04;74.79;94925.81;4150320;28;19921;-72
2023/01/13 03:29:26;;;;;;;;;;;;;;;4.08;74.35;94928.97;4140780;28;19921;-73
2023/01/13 03:31:29;;;;;;;;;;;;;;;4.13;74.27;94932.09;4155144;28;19998;-72
2023/01/13 03:33:35;;;;;;;;;;;;;;;4.21;74.18;94926.31;4176061;28;19928;-71
2023/01/13 03:35:38;;;;;;;;;;;;;;;4.19;74.33;94933.38;4145556;28;20320;-72
2023/01/13 03:37:41;;;;;;;;;;;;;;;4.17;73.96;94932.66;4150597;28;20305;-72
2023/01/13 03:39:45;;;;;;;;;;;;;;;4.08;74.15;94929.81;4152595;28;19936;-74
2023/01/13 03:41:52;;;;;;;;;;;;;;;4.05;74.58;94931.81;4145175;28;19952;-71
2023/01/13 03:44:22;;;;;;;;;;;;;;;4.04;75.05;94928.41;4170917;28;20309;-74
2023/01/13 03:46:45;;;;;;;;;;;;;;;4.00;74.61;94934.75;4171940;28;19920;-72
2023/01/13 03:48:47;;;;;;;;;;;;;;;4.09;75.04;94941.03;4169595;28;19932;-73
2023/01/13 03:50:49;;;;;;;;;;;;;;;4.09;74.07;94936.66;4149545;28;19956;-72
2023/01/13 03:52:52;;;;;;;;;;;;;;;4.08;74.55;94940.19;4154570;28;20150;-73
2023/01/13 03:54:56;;;;;;;;;;;;;;;4.15;74.64;94942.31;4142092;28;20332;-72
2023/01/13 03:57:05;;;;;;;;;;;;;;;4.18;74.58;94937.75;4161175;28;19976;-73
2023/01/13 03:59:07;;;;;;;;;;;;;;;4.22;73.72;94939.16;4156295;28;19936;-70
2023/01/13 04:01:15;;;;;;;;;;;;;;;4.14;73.76;94948.47;4158612;28;19921;-72
2023/01/13 04:03:28;;;;;;;;;;;;;;;4.20;73.97;94937.63;4176291;28;19924;-72
2023/01/13 04:05:30;;;;;;;;;;;;;;;4.19;74.41;94939.38;4154496;28;20032;-72
2023/01/13 04:07:36;;;;;;;;;;;;;;;4.21;74.26;94939.28;4157601;28;19921;-71
2023/01/13 04:09:56;;;;;;;;;;;;;;;4.24;73.92;94939.06;4174607;28;19996;-72
2023/01/13 04:12:01;;;;;;;;;;;;;;;4.22;74.31;94946.13;4169673;28;19978;-71
2023/01/13 04:14:03;;;;;;;;;;;;;;;4.25;74.19;94943.28;4157220;28;19925;-72
2023/01/13 04:16:05;;;;;;;;;;;;;;;4.21;73.66;94944.47;4175972;28;20331;-72
2023/01/13 04:18:26;;;;;;;;;;;;;;;4.22;73.76;94948.72;4173321;28;19921;-72
2023/01/13 04:20:27;;;;;;;;;;;;;;;4.21;74.44;94949.66;4176700;28;19927;-69
2023/01/13 04:22:29;;;;;;;;;;;;;;;4.23;73.79;94955.53;4173934;28;19932;-71
2023/01/13 04:24:30;;;;;;;;;;;;;;;4.16;73.55;94952.59;4174503;28;20595;-72
2023/01/13 04:26:32;;;;;;;;;;;;;;;4.14;74.36;94951.88;4178895;28;19920;-72
2023/01/13 04:28:33;;;;;;;;;;;;;;;4.14;74.30;94951.06;4174763;28;19921;-70
2023/01/13 04:30:36;;;;;;;;;;;;;;;4.11;74.64;94957.28;4168744;28;20253;-72
2023/01/13 04:32:38;;;;;;;;;;;;;;;4.13;74.01;94951.97;4179314;28;20407;-71
2023/01/13 04:34:42;;;;;;;;;;;;;;;4.13;73.94;94958.00;4178602;28;19946;-72
2023/01/13 04:36:43;;;;;;;;;;;;;;;4.19;74.00;94957.53;4179252;28;20425;-73
2023/01/13 04:38:45;;;;;;;;;;;;;;;4.20;74.12;94964.38;4177046;28;19933;-72
2023/01/13 04:40:47;;;;;;;;;;;;;;;4.22;74.49;94962.50;4160930;28;19947;-71
2023/01/13 04:42:48;;;;;;;;;;;;;;;4.20;73.90;94959.19;4178710;28;20333;-74
2023/01/13 04:44:50;;;;;;;;;;;;;;;4.19;73.92;94956.72;4178049;28;19921;-74
2023/01/13 04:46:52;;;;;;;;;;;;;;;4.15;74.60;94961.31;4178871;28;20356;-72
2023/01/13 04:48:53;;;;;;;;;;;;;;;4.17;73.97;94961.19;4178818;28;19920;-70
2023/01/13 04:50:55;;;;;;;;;;;;;;;4.19;74.18;94952.34;4170903;28;19921;-72
2023/01/13 04:52:56;;;;;;;;;;;;;;;4.21;74.56;94960.84;4175191;28;19975;-71
2023/01/13 04:54:59;;;;;;;;;;;;;;;4.21;74.44;94960.03;4178076;28;20012;-72
2023/01/13 04:57:01;;;;;;;;;;;;;;;4.14;73.94;94964.00;4178841;28;20401;-73
2023/01/13 04:59:02;;;;;;;;;;;;;;;4.17;73.94;94964.59;4179202;28;19998;-72
2023/01/13 05:01:04;;;;;;;;;;;;;;;4.15;73.87;94956.13;4177503;28;20356;-72
2023/01/13 05:03:05;;;;;;;;;;;;;;;4.15;74.70;94963.06;4173058;28;19928;-73
2023/01/13 05:05:08;;;;;;;;;;;;;;;4.14;74.61;94961.41;4169963;28;19921;-71
2023/01/13 05:07:10;;;;;;;;;;;;;;;4.16;74.52;94960.38;4169374;28;19928;-71
2023/01/13 05:09:12;;;;;;;;;;;;;;;4.17;73.90;94963.78;4176950;28;20058;-72
2023/01/13 05:18:25;;;;;;;;;;;;;;;4.24;74.35;94967.59;4094463;29;19929;-72
2023/01/13 05:20:26;;;;;;;;;;;;;;;4.20;74.38;94966.16;4155977;28;20024;-73
2023/01/13 05:27:08;;;;;;;;;;;;;;;4.28;74.68;94966.38;4166113;28;20321;-72
2023/01/13 05:29:10;;;;;;;;;;;;;;;4.27;74.38;94967.34;4154323;28;19921;-72
2023/01/13 05:31:13;;;;;;;;;;;;;;;4.25;74.34;94971.81;4153047;28;19929;-73
2023/01/13 05:33:16;;;;;;;;;;;;;;;4.24;73.97;94976.19;4161772;28;19921;-71
2023/01/13 05:35:18;;;;;;;;;;;;;;;4.19;74.49;94975.69;4164221;28;19932;-69
2023/01/13 05:37:20;;;;;;;;;;;;;;;4.21;74.83;94975.56;4173433;28;19925;-72
2023/01/13 05:39:21;;;;;;;;;;;;;;;4.19;74.74;94967.09;4169673;28;19932;-70
2023/01/13 05:43:43;;;;;;;;;;;;;;;4.14;75.17;94964.84;4162202;28;19951;-72
2023/01/13 05:45:45;;;;;;;;;;;;;;;4.10;75.13;94974.59;4170111;28;20019;-73
2023/01/13 05:47:47;;;;;;;;;;;;;;;4.06;75.02;94972.34;4166735;28;19987;-73
2023/01/13 05:49:48;;;;;;;;;;;;;;;4.07;74.94;94974.00;4174473;28;19924;-73
2023/01/13 05:51:50;;;;;;;;;;;;;;;4.11;75.34;94972.84;4168786;28;19956;-73
2023/01/13 05:53:51;;;;;;;;;;;;;;;4.13;75.60;94976.16;4149730;28;20345;-73
2023/01/13 05:55:53;;;;;;;;;;;;;;;4.17;74.84;94982.75;4178186;28;19921;-72
2023/01/13 05:57:54;;;;;;;;;;;;;;;4.24;75.11;94983.16;4164988;28;19921;-71
2023/01/13 05:59:56;;;;;;;;;;;;;;;4.27;75.27;94990.69;4167559;28;19927;-72
2023/01/13 06:01:57;;;;;;;;;;;;;;;4.17;74.82;94980.16;4177865;28;20511;-73
2023/01/13 06:03:59;;;;;;;;;;;;;;;4.15;75.23;94983.81;4176946;28;19926;-75
2023/01/13 06:06:02;;;;;;;;;;;;;;;4.12;75.19;94987.44;4170813;28;19921;-73
2023/01/13 06:08:05;;;;;;;;;;;;;;;4.14;75.60;94987.34;4170757;28;19920;-73
2023/01/13 06:10:08;;;;;;;;;;;;;;;4.17;74.92;94992.28;4177129;28;20007;-76
2023/01/13 06:12:10;;;;;;;;;;;;;;;4.16;74.71;94993.25;4165759;28;20015;-70
2023/01/13 06:14:12;;;;;;;;;;;;;;;4.12;74.68;94999.59;4160012;28;19993;-71
2023/01/13 06:16:13;;;;;;;;;;;;;;;4.13;75.26;94998.66;4177560;28;19956;-73
2023/01/13 06:18:15;;;;;;;;;;;;;;;4.09;75.59;95000.66;4176505;28;19948;-72
2023/01/13 06:20:17;;;;;;;;;;;;;;;4.14;74.95;95005.50;4177519;28;19950;-74
2023/01/13 06:22:21;;;;;;;;;;;;;;;4.14;74.99;95005.50;4176758;28;20340;-72
2023/01/13 06:24:22;;;;;;;;;;;;;;;4.18;74.80;95014.72;4176545;28;20355;-72
2023/01/13 06:26:24;;;;;;;;;;;;;;;4.12;75.30;95009.97;4176477;28;19979;-72
2023/01/13 06:28:26;;;;;;;;;;;;;;;4.06;75.67;95003.47;4159852;28;19921;-72
2023/01/13 06:30:38;;;;;;;;;;;;;;;4.01;75.80;95003.78;4164742;28;20356;-74
2023/01/13 06:32:41;;;;;;;;;;;;;;;4.05;76.15;95012.19;4177270;28;19921;-72
2023/01/13 06:34:44;;;;;;;;;;;;;;;4.00;76.18;95006.50;4174157;28;19927;-74
2023/01/13 06:36:47;;;;;;;;;;;;;;;3.94;76.19;95015.56;4176734;28;20355;-76
2023/01/13 06:38:51;;;;;;;;;;;;;;;3.97;75.99;95012.72;4155814;28;20001;-73
2023/01/13 06:40:53;;;;;;;;;;;;;;;3.93;75.86;95007.88;4174068;28;19932;-73
2023/01/13 06:45:17;;;;;;;;;;;;;;;3.96;76.28;95005.91;4162522;28;19921;-72
2023/01/13 06:47:21;;;;;;;;;;;;;;;3.97;76.10;95006.72;4174039;28;20407;-72
2023/01/13 06:49:24;;;;;;;;;;;;;;;4.04;76.04;95005.34;4177227;28;19931;-72
2023/01/13 06:51:25;;;;;;;;;;;;;;;4.04;75.80;95006.19;4175818;28;19920;-73
2023/01/13 06:53:27;;;;;;;;;;;;;;;4.13;75.69;95004.69;4170328;28;19925;-73
2023/01/13 06:55:28;;;;;;;;;;;;;;;4.16;75.46;95001.84;4173045;28;19920;-74
2023/01/13 06:57:30;;;;;;;;;;;;;;;4.18;75.30;95006.94;4173897;28;20337;-71
2023/01/13 06:59:34;;;;;;;;;;;;;;;4.22;75.50;95003.19;4177879;28;20402;-74
2023/01/13 07:01:36;;;;;;;;;;;;;;;4.25;74.74;95000.34;4177068;28;20046;-72
2023/01/13 07:03:37;;;;;;;;;;;;;;;4.23;75.46;95005.63;4175322;28;19924;-73
2023/01/13 07:05:39;;;;;;;;;;;;;;;4.23;75.25;94999.63;4154055;28;19937;-72
2023/01/13 07:07:41;;;;;;;;;;;;;;;4.21;75.41;95004.91;4170207;28;19932;-72
2023/01/13 07:09:43;;;;;;;;;;;;;;;4.21;75.29;94997.13;4165137;28;19924;-73
2023/01/13 07:11:45;;;;;;;;;;;;;;;4.23;75.17;95007.41;4176213;28;20487;-75
2023/01/13 07:16:07;;;;;;;;;;;;;;;4.15;75.44;95007.13;4177125;28;19921;-72
2023/01/13 07:18:09;;;;;;;;;;;;;;;4.21;75.38;95004.91;4158345;28;20062;-73
2023/01/13 07:20:10;;;;;;;;;;;;;;;4.23;75.64;95000.44;4157743;28;19979;-74
2023/01/13 07:22:12;;;;;;;;;;;;;;;4.28;74.92;95002.69;4169278;28;19951;-74
2023/01/13 07:24:14;;;;;;;;;;;;;;;4.38;74.81;94997.66;4177924;28;19921;-72
2023/01/13 07:26:15;;;;;;;;;;;;;;;4.40;75.10;94990.59;4171918;28;20362;-72
2023/01/13 07:28:17;;;;;;;;;;;;;;;4.41;74.59;94998.28;4168801;28;20016;-74
2023/01/13 07:30:19;;;;;;;;;;;;;;;4.38;74.39;94998.50;4172193;28;20144;-73
2023/01/13 07:32:20;;;;;;;;;;;;;;;4.30;74.77;94999.06;4163568;28;19924;-75
2023/01/13 07:34:22;;;;;;;;;;;;;;;4.34;75.13;94993.66;4176027;28;19956;-74
2023/01/13 07:36:23;;;;;;;;;;;;;;;4.31;74.35;94986.94;4175045;28;19925;-72
2023/01/13 07:38:25;;;;;;;;;;;;;;;4.31;74.88;94992.13;4157666;28;19921;-73
2023/01/13 07:40:27;;;;;;;;;;;;;;;4.38;74.42;94995.91;4174789;28;19928;-73
2023/01/13 07:44:48;;;;;;;;;;;;;;;4.60;74.16;94991.69;4175846;28;20142;-76
2023/01/13 07:46:50;;;;;;;;;;;;;;;4.72;73.30;94995.97;4175108;28;19986;-75
2023/01/13 07:48:51;;;;;;;;;;;;;;;4.53;73.38;94988.75;4175958;28;19996;-73
2023/01/13 07:50:53;;;;;;;;;;;;;;;4.42;74.18;94999.91;4175515;28;19933;-74
2023/01/13 07:52:57;;;;;;;;;;;;;;;4.06;74.67;95003.47;4174228;28;19928;-74
2023/01/13 07:54:59;;;;;;;;;;;;;;;3.52;76.76;94996.94;4169590;28;20006;-73
2023/01/13 07:57:01;;;;;;;;;;;;;;;3.23;78.48;95006.78;4174762;28;19932;-74
2023/01/13 07:59:02;;;;;;;;;;;;;;;3.18;78.61;95006.25;4174207;28;19924;-74
2023/01/13 08:01:11;;;;;;;;;;;;;;;3.20;78.44;95006.97;4171417;28;19928;-74
2023/01/13 08:03:12;;;;;;;;;;;;;;;3.14;78.70;95007.41;4170168;28;20418;-73
2023/01/13 08:05:15;;;;;;;;;;;;;;;3.39;78.93;95007.34;4157267;28;19921;-74
2023/01/13 08:07:16;;;;;;;;;;;;;;;3.54;77.61;95012.38;4163232;28;20400;-74
2023/01/13 08:09:18;;;;;;;;;;;;;;;3.60;77.53;95009.38;4169032;28;19952;-74
2023/01/13 08:11:19;;;;;;;;;;;;;;;3.79;77.52;95008.88;4160388;28;20012;-74
2023/01/13 08:13:23;;;;;;;;;;;;;;;3.65;76.78;95015.88;4161732;28;20325;-72
2023/01/13 08:15:25;;;;;;;;;;;;;;;3.81;77.02;95012.19;4172146;28;20008;-72
2023/01/13 08:17:27;;;;;;;;;;;;;;;4.01;76.90;95014.16;4160761;28;20444;-73
2023/01/13 08:19:29;;;;;;;;;;;;;;;4.21;75.58;95007.50;4159952;28;20354;-74
2023/01/13 08:21:30;;;;;;;;;;;;;;;4.41;74.73;95013.84;4173981;28;19986;-72
2023/01/13 08:23:32;;;;;;;;;;;;;;;4.55;74.91;95005.03;4170258;28;19928;-74
2023/01/13 08:25:34;;;;;;;;;;;;;;;4.69;73.57;95011.78;4150571;28;19920;-74
2023/01/13 08:27:35;;;;;;;;;;;;;;;4.88;73.57;95009.44;4161377;28;19921;-72
2023/01/13 08:29:37;;;;;;;;;;;;;;;4.95;72.28;95008.97;4171116;28;19951;-74
2023/01/13 08:31:38;;;;;;;;;;;;;;;5.11;72.17;95010.25;4172486;28;20140;-73
2023/01/13 08:33:41;;;;;;;;;;;;;;;5.24;71.57;95007.53;4175354;28;19920;-72
2023/01/13 08:35:43;;;;;;;;;;;;;;;5.33;71.21;95006.84;4175644;28;20020;-72
2023/01/13 08:37:45;;;;;;;;;;;;;;;5.39;71.02;95004.72;4174824;28;20382;-73
2023/01/13 08:39:47;;;;;;;;;;;;;;;5.33;70.92;95008.59;4175682;28;20375;-72
2023/01/13 08:41:55;;;;;;;;;;;;;;;5.33;71.22;95006.84;4174575;28;19963;-73
2023/01/13 08:43:56;;;;;;;;;;;;;;;5.33;70.58;95004.25;4174919;28;19921;-73
2023/01/13 08:45:59;;;;;;;;;;;;;;;5.44;71.18;95005.16;4174833;28;19921;-74
2023/01/13 08:48:01;;;;;;;;;;;;;;;5.53;70.87;95001.88;4174490;28;20003;-71
2023/01/13 08:50:03;;;;;;;;;;;;;;;5.60;70.04;94997.81;4174104;28;19925;-74
2023/01/13 08:52:05;;;;;;;;;;;;;;;5.74;69.59;95000.16;4174812;28;20308;-72
2023/01/13 08:54:07;;;;;;;;;;;;;;;5.80;69.29;95003.22;4173356;28;20027;-71
2023/01/13 08:56:12;;;;;;;;;;;;;;;5.88;68.82;94996.44;4156612;28;19980;-71
2023/01/13 08:58:13;;;;;;;;;;;;;;;5.44;69.87;95005.16;4159694;28;20670;-74
2023/01/13 09:00:16;;;;;;;;;;;;;;;5.53;70.24;95007.88;4160605;28;19925;-71
2023/01/13 09:02:19;;;;;;;;;;;;;;;5.67;69.53;95003.38;4169428;28;20292;-73
2023/01/13 09:04:23;;;;;;;;;;;;;;;5.40;69.11;95006.34;4177343;28;20317;-72
2023/01/13 09:06:24;;;;;;;;;;;;;;;5.13;70.03;95002.38;4174823;28;20279;-76
2023/01/13 09:08:26;;;;;;;;;;;;;;;5.14;70.81;95004.00;4176587;28;20021;-71
2023/01/13 09:10:27;;;;;;;;;;;;;;;4.55;72.01;95007.63;4147716;28;20024;-73
2023/01/13 09:14:50;;;;;;;;;;;;;;;4.42;72.59;95006.88;4178641;28;20011;-73
2023/01/13 09:16:52;;;;;;;;;;;;;;;4.38;73.56;95001.09;4165688;28;19970;-70
2023/01/13 09:18:53;;;;;;;;;;;;;;;4.57;72.94;95007.50;4159887;28;19925;-74
2023/01/13 09:20:55;;;;;;;;;;;;;;;4.81;73.35;95005.66;4167745;28;19920;-72
2023/01/13 09:22:56;;;;;;;;;;;;;;;5.04;71.68;95000.47;4174401;28;19927;-73
2023/01/13 09:24:59;;;;;;;;;;;;;;;5.24;70.75;94998.94;4162283;28;19932;-73
2023/01/13 09:27:01;;;;;;;;;;;;;;;5.31;70.30;94997.50;4162466;28;19921;-72
2023/01/13 09:29:02;;;;;;;;;;;;;;;5.44;70.06;94998.22;4172056;28;19924;-73
2023/01/13 09:31:04;;;;;;;;;;;;;;;5.56;69.27;94991.22;4175030;28;19928;-73
2023/01/13 09:35:27;;;;;;;;;;;;;;;5.76;69.12;94989.63;4177113;28;20359;-72
2023/01/13 09:37:33;;;;;;;;;;;;;;;5.75;68.40;94990.59;4172135;28;20171;-72
2023/01/13 09:39:34;;;;;;;;;;;;;;;5.20;70.15;94992.31;4153526;28;20268;-75
2023/01/13 09:43:59;;;;;;;;;;;;;;;4.66;72.26;94993.84;4153213;28;19939;-73
2023/01/13 09:46:03;;;;;;;;;;;;;;;4.67;71.66;94992.91;4159783;28;19944;-73
2023/01/13 09:48:06;;;;;;;;;;;;;;;5.04;71.90;94996.09;4177668;28;20450;-73
2023/01/13 09:50:13;;;;;;;;;;;;;;;5.04;70.75;94990.09;4147170;28;19966;-72
2023/01/13 09:52:19;;;;;;;;;;;;;;;5.03;70.88;94996.22;4165411;28;20387;-73
2023/01/13 09:54:27;;;;;;;;;;;;;;;4.78;71.65;94987.72;4154342;28;19967;-73
2023/01/13 09:56:28;;;;;;;;;;;;;;;4.54;70.97;94985.22;4172300;28;20030;-72
2023/01/13 09:58:31;;;;;;;;;;;;;;;4.59;71.17;94982.28;4162141;28;19920;-73
2023/01/13 10:00:38;;;;;;;;;;;;;;;4.69;71.99;94978.06;4143927;28;19992;-73
2023/01/13 10:02:40;;;;;;;;;;;;;;;5.01;71.62;94980.78;4151484;28;20011;-73
2023/01/13 10:04:41;;;;;;;;;;;;;;;5.33;70.90;94974.84;4168273;28;19997;-74
2023/01/13 10:06:45;;;;;;;;;;;;;;;5.55;69.40;94976.59;4177337;28;19963;-73
2023/01/13 10:08:47;;;;;;;;;;;;;;;5.69;68.91;94971.09;4157729;28;20270;-75
2023/01/13 10:10:50;;;;;;;;;;;;;;;5.67;68.59;94974.78;4177579;28;19936;-73
2023/01/13 10:15:16;;;;;;;;;;;;;;;5.74;68.22;94963.78;4160638;28;19929;-74
2023/01/13 10:17:20;;;;;;;;;;;;;;;5.67;68.16;94972.16;4160063;28;19944;-73
2023/01/13 10:19:26;;;;;;;;;;;;;;;5.66;67.96;94973.97;4159443;28;19925;-73
2023/01/13 10:21:34;;;;;;;;;;;;;;;5.27;68.88;94970.97;4143008;28;20244;-75
2023/01/13 10:23:37;;;;;;;;;;;;;;;5.18;69.12;94973.44;4176919;28;19927;-75
2023/01/13 10:25:54;;;;;;;;;;;;;;;5.12;69.27;94967.78;4177480;28;19998;-74
2023/01/13 10:28:00;;;;;;;;;;;;;;;5.26;69.67;94963.28;4177397;28;19932;-75
2023/01/13 10:30:21;;;;;;;;;;;;;;;5.12;69.88;94962.59;4166438;28;19959;-76
2023/01/13 10:32:23;;;;;;;;;;;;;;;5.38;69.51;94959.72;4174392;28;20376;-71
2023/01/13 10:34:25;;;;;;;;;;;;;;;5.60;69.29;94953.66;4174340;28;19979;-73
2023/01/13 10:36:26;;;;;;;;;;;;;;;5.81;68.55;94952.84;4158900;28;20024;-72
2023/01/13 10:38:34;;;;;;;;;;;;;;;5.94;68.20;94954.38;4171098;28;19929;-72
2023/01/13 10:40:35;;;;;;;;;;;;;;;6.01;67.74;94948.69;4176799;28;20290;-71
2023/01/13 10:42:37;;;;;;;;;;;;;;;6.12;67.72;94951.25;4158889;28;20426;-73
2023/01/13 10:44:49;;;;;;;;;;;;;;;6.26;67.08;94947.50;4171574;28;19927;-74
2023/01/13 10:46:55;;;;;;;;;;;;;;;6.33;66.40;94941.66;4170009;28;20372;-73
2023/01/13 10:49:04;;;;;;;;;;;;;;;6.13;66.67;94939.88;4176169;28;19921;-72
2023/01/13 10:51:09;;;;;;;;;;;;;;;6.15;67.00;94938.81;4160343;28;20388;-78
2023/01/13 10:53:17;;;;;;;;;;;;;;;5.98;67.43;94944.56;4172256;28;19963;-74
2023/01/13 10:55:29;;;;;;;;;;;;;;;6.05;67.33;94934.50;4176705;28;19920;-75
2023/01/13 10:57:34;;;;;;;;;;;;;;;6.21;66.85;94937.47;4139864;28;20041;-75
2023/01/13 10:59:36;;;;;;;;;;;;;;;6.34;66.72;94937.28;4156507;28;19952;-75
2023/01/13 11:01:37;;;;;;;;;;;;;;;6.39;66.29;94934.28;4174330;28;19928;-73
2023/01/13 11:03:41;;;;;;;;;;;;;;;6.13;66.45;94937.25;4172703;28;20246;-73
2023/01/13 11:05:47;;;;;;;;;;;;;;;5.78;67.88;94942.72;4169872;28;20301;-75
2023/01/13 11:07:51;;;;;;;;;;;;;;;5.63;68.81;94940.38;4145808;28;19975;-72
2023/01/13 11:10:02;;;;;;;;;;;;;;;5.71;68.74;94940.59;4155251;28;19987;-73
2023/01/13 11:12:04;;;;;;;;;;;;;;;5.74;68.16;94939.53;4170965;28;19940;-72
2023/01/13 11:16:26;;;;;;;;;;;;;;;5.70;68.44;94938.97;4173442;28;20339;-73
2023/01/13 11:18:50;;;;;;;;;;;;;;;5.57;69.35;94924.47;4158623;28;20384;-74
2023/01/13 11:20:52;;;;;;;;;;;;;;;5.64;68.87;94930.84;4155247;28;19943;-74
2023/01/13 11:22:56;;;;;;;;;;;;;;;5.73;68.52;94930.91;4174497;28;20027;-72
2023/01/13 11:25:00;;;;;;;;;;;;;;;5.79;68.77;94924.41;4157751;28;20052;-74
2023/01/13 11:27:20;;;;;;;;;;;;;;;5.90;67.69;94928.72;4154635;28;19921;-73
2023/01/13 11:29:33;;;;;;;;;;;;;;;5.90;67.79;94928.72;4160903;28;19929;-74
2023/01/13 11:32:01;;;;;;;;;;;;;;;5.93;67.85;94924.09;4155587;28;19983;-74
2023/01/13 11:34:13;;;;;;;;;;;;;;;5.98;67.85;94928.97;4171814;28;19983;-73
2023/01/13 11:36:16;;;;;;;;;;;;;;;5.69;68.92;94926.91;4158562;28;20402;-73
2023/01/13 11:38:22;;;;;;;;;;;;;;;5.40;69.12;94925.81;4157668;28;19964;-74
2023/01/13 11:40:30;;;;;;;;;;;;;;;5.53;69.82;94923.91;4175827;28;19943;-73